Time;durP1;ratioP1;P1;durP2;ratioP2;P2;SDS_P1;SDS_P2;PMS_P1;PMS_P2;Temp;Humidity;BMP_temperature;BMP_pressure;BME280_temperature;BME280_humidity;BME280_pressure;Samples;Min_cycle;Max_cycle;Signal;HPM_P1;HPM_P2
2022/06/25 00:00:07;;;;;;;3.20;1.10;;;18.30;99.90;;;;;;6913566;28;20432;-80
2022/06/25 00:03:29;;;;;;;3.65;1.10;;;18.30;99.90;;;;;;6911186;28;20436;-80
2022/06/25 00:06:51;;;;;;;3.00;1.10;;;18.30;99.90;;;;;;6913417;28;20441;-80
2022/06/25 00:10:13;;;;;;;2.33;1.10;;;18.20;99.90;;;;;;6913272;28;20475;-78
2022/06/25 00:13:36;;;;;;;5.57;1.20;;;18.10;99.90;;;;;;6917352;28;20481;-79
2022/06/25 00:17:01;;;;;;;3.15;1.10;;;18.10;99.90;;;;;;6918798;28;20826;-80
2022/06/25 00:20:23;;;;;;;3.80;1.30;;;18.10;99.90;;;;;;6917940;28;20435;-80
2022/06/25 00:23:45;;;;;;;4.37;1.40;;;18.10;99.90;;;;;;6916892;28;20444;-77
2022/06/25 00:27:07;;;;;;;3.85;1.20;;;18.10;99.90;;;;;;6918909;28;20464;-79
2022/06/25 00:30:30;;;;;;;5.18;1.30;;;18.10;99.90;;;;;;6920893;28;20444;-79
2022/06/25 00:33:53;;;;;;;3.25;1.10;;;18.10;99.90;;;;;;6921985;28;20491;-78
2022/06/25 00:37:16;;;;;;;4.22;1.30;;;18.00;99.90;;;;;;6917948;28;20472;-78
2022/06/25 00:40:38;;;;;;;4.03;1.30;;;18.00;99.90;;;;;;6919060;28;20971;-78
2022/06/25 00:44:00;;;;;;;4.33;1.30;;;18.00;99.90;;;;;;6917115;28;20929;-77
2022/06/25 00:47:23;;;;;;;3.67;1.30;;;18.00;99.90;;;;;;6918560;28;20906;-78
2022/06/25 00:50:46;;;;;;;3.17;1.30;;;17.90;99.90;;;;;;6917627;28;20451;-80
2022/06/25 00:54:10;;;;;;;2.95;1.13;;;17.90;99.90;;;;;;6915805;28;20479;-79
2022/06/25 00:57:35;;;;;;;4.93;1.60;;;17.80;99.90;;;;;;6917893;28;20437;-79
2022/06/25 01:00:58;;;;;;;3.20;1.10;;;17.80;99.90;;;;;;6916413;28;20467;-79
2022/06/25 01:04:20;;;;;;;3.38;1.30;;;17.70;99.90;;;;;;6916709;28;20563;-81
2022/06/25 01:07:47;;;;;;;3.90;1.48;;;17.70;99.90;;;;;;6916669;28;20477;-79
2022/06/25 01:11:11;;;;;;;4.43;1.50;;;17.60;99.90;;;;;;6917138;28;20476;-80
2022/06/25 01:14:33;;;;;;;4.97;1.70;;;17.60;99.90;;;;;;6916023;28;20431;-79
2022/06/25 01:17:55;;;;;;;3.88;1.30;;;17.60;99.90;;;;;;6917223;28;20926;-80
2022/06/25 01:21:17;;;;;;;3.37;1.50;;;17.50;99.90;;;;;;6916858;28;20854;-78
2022/06/25 01:24:40;;;;;;;5.07;1.30;;;17.50;99.90;;;;;;6914675;28;20437;-80
2022/06/25 01:28:03;;;;;;;3.67;1.30;;;17.50;99.90;;;;;;6915923;28;20437;-78
2022/06/25 01:31:25;;;;;;;2.97;1.20;;;17.50;99.90;;;;;;6916497;28;20501;-78
2022/06/25 01:34:47;;;;;;;3.25;1.35;;;17.40;99.90;;;;;;6915378;28;20447;-79
2022/06/25 01:38:09;;;;;;;3.38;1.30;;;17.40;99.90;;;;;;6916435;28;20819;-80
2022/06/25 01:41:33;;;;;;;5.00;1.40;;;17.40;99.90;;;;;;6916835;28;20497;-80
2022/06/25 01:44:55;;;;;;;3.67;1.42;;;17.40;99.90;;;;;;6913620;28;20437;-78
2022/06/25 01:48:17;;;;;;;3.60;1.38;;;17.40;99.90;;;;;;6914800;28;20432;-78
2022/06/25 01:51:39;;;;;;;4.70;1.48;;;17.40;99.90;;;;;;6916083;28;20428;-79
2022/06/25 01:55:01;;;;;;;3.97;1.30;;;17.30;99.90;;;;;;6889126;28;20434;-78
2022/06/25 01:58:24;;;;;;;4.28;1.30;;;17.30;99.90;;;;;;6893304;28;20443;-78
2022/06/25 02:01:46;;;;;;;3.60;1.50;;;17.30;99.90;;;;;;6916986;28;20962;-78
2022/06/25 02:05:10;;;;;;;4.22;1.48;;;17.30;99.90;;;;;;6916705;28;20464;-80
2022/06/25 02:08:36;;;;;;;3.67;1.40;;;17.20;99.90;;;;;;6915901;28;20431;-79
2022/06/25 02:11:58;;;;;;;4.68;1.40;;;17.20;99.90;;;;;;6909780;28;20921;-80
2022/06/25 02:15:21;;;;;;;3.50;1.30;;;17.10;99.90;;;;;;6915489;28;20816;-80
2022/06/25 02:18:43;;;;;;;4.40;1.50;;;17.10;99.90;;;;;;6914061;28;20930;-79
2022/06/25 02:22:05;;;;;;;3.72;1.40;;;17.10;99.90;;;;;;6914145;28;20472;-78
2022/06/25 02:25:28;;;;;;;3.53;1.35;;;17.10;99.90;;;;;;6915641;28;20460;-79
2022/06/25 02:28:50;;;;;;;4.32;1.50;;;17.00;99.90;;;;;;6915170;28;20472;-79
2022/06/25 02:32:13;;;;;;;3.22;1.30;;;17.10;99.90;;;;;;6913106;28;20464;-80
2022/06/25 02:35:35;;;;;;;3.90;1.45;;;17.00;99.90;;;;;;6912864;28;20456;-79
2022/06/25 02:38:57;;;;;;;4.93;1.50;;;17.00;99.90;;;;;;6887751;28;20924;-80
2022/06/25 02:42:19;;;;;;;4.18;1.48;;;17.00;99.90;;;;;;6891109;28;20510;-79
2022/06/25 02:45:41;;;;;;;4.63;1.50;;;17.00;99.90;;;;;;6914847;28;20457;-80
2022/06/25 02:49:05;;;;;;;3.75;1.65;;;17.00;99.90;;;;;;6913069;28;20444;-80
2022/06/25 02:52:27;;;;;;;3.83;1.45;;;16.90;99.90;;;;;;6913554;28;20523;-78
2022/06/25 02:59:29;;;;;;;4.32;1.50;;;16.90;99.90;;;;;;6914286;28;20890;-80
2022/06/25 03:02:51;;;;;;;4.18;1.30;;;17.00;99.90;;;;;;6912817;28;20444;-78
2022/06/25 03:06:14;;;;;;;2.63;1.23;;;17.00;99.90;;;;;;6913458;28;20440;-79
2022/06/25 03:09:36;;;;;;;3.63;1.30;;;17.00;99.90;;;;;;6914117;28;20440;-79
2022/06/25 03:12:58;;;;;;;4.22;1.50;;;17.00;99.90;;;;;;6913942;28;20468;-79
2022/06/25 03:16:20;;;;;;;3.10;1.23;;;17.00;99.90;;;;;;6912519;28;20831;-79
2022/06/25 03:19:43;;;;;;;3.92;1.40;;;17.00;99.90;;;;;;6912720;28;20440;-79
2022/06/25 03:23:06;;;;;;;4.93;1.50;;;17.00;99.90;;;;;;6914022;28;20790;-79
2022/06/25 03:26:28;;;;;;;2.40;1.23;;;17.00;99.90;;;;;;6913289;28;20886;-78
2022/06/25 03:29:51;;;;;;;4.07;1.30;;;16.90;99.90;;;;;;6912376;28;20432;-79
2022/06/25 03:33:13;;;;;;;3.47;1.20;;;16.90;99.90;;;;;;6916097;28;20428;-81
2022/06/25 03:36:35;;;;;;;4.32;1.20;;;16.90;99.90;;;;;;6911540;28;20439;-81
2022/06/25 03:39:59;;;;;;;3.10;1.50;;;16.90;99.90;;;;;;6911755;28;20440;-79
2022/06/25 03:43:21;;;;;;;2.90;1.20;;;16.90;99.90;;;;;;6913171;28;20436;-81
2022/06/25 03:46:43;;;;;;;3.15;1.20;;;16.90;99.90;;;;;;6913887;28;20456;-80
2022/06/25 03:50:07;;;;;;;2.47;1.00;;;16.90;99.90;;;;;;6918707;28;20440;-79
2022/06/25 03:53:29;;;;;;;4.20;1.20;;;16.90;99.90;;;;;;6914438;28;20440;-79
2022/06/25 03:56:52;;;;;;;3.57;1.33;;;17.00;99.90;;;;;;6913190;28;21019;-79
2022/06/25 04:00:15;;;;;;;3.38;1.10;;;17.00;99.90;;;;;;6912347;28;20973;-79
2022/06/25 04:03:38;;;;;;;3.28;1.20;;;17.00;99.90;;;;;;6911134;28;20490;-79
2022/06/25 04:07:00;;;;;;;4.85;1.13;;;17.00;99.90;;;;;;6898800;28;20433;-79
2022/06/25 04:10:22;;;;;;;3.95;1.20;;;17.10;99.90;;;;;;6917046;28;20452;-78
2022/06/25 04:13:46;;;;;;;4.80;1.10;;;17.00;99.90;;;;;;6921190;28;20437;-80
2022/06/25 04:17:08;;;;;;;3.70;1.10;;;17.10;99.90;;;;;;6919073;28;20440;-79
2022/06/25 04:20:30;;;;;;;3.17;1.10;;;17.10;99.90;;;;;;6914711;28;20432;-80
2022/06/25 04:23:52;;;;;;;3.53;1.20;;;17.10;99.90;;;;;;6911426;28;20506;-79
2022/06/25 04:30:51;;;;;;;3.35;1.20;;;17.10;99.90;;;;;;6906302;28;20438;-79
2022/06/25 04:34:15;;;;;;;2.90;1.20;;;17.00;99.90;;;;;;6893530;28;20930;-79
2022/06/25 04:37:37;;;;;;;4.60;1.30;;;17.00;99.90;;;;;;6910566;28;20444;-79
2022/06/25 04:40:59;;;;;;;3.50;1.30;;;17.10;99.90;;;;;;6912715;28;20428;-79
2022/06/25 04:44:21;;;;;;;4.03;1.20;;;17.10;99.90;;;;;;6910893;28;20464;-77
2022/06/25 04:47:44;;;;;;;3.55;1.30;;;17.20;99.90;;;;;;6911327;28;20951;-80
2022/06/25 04:51:07;;;;;;;2.50;1.30;;;17.20;99.90;;;;;;6912499;28;20448;-80
2022/06/25 04:54:29;;;;;;;6.15;1.80;;;17.30;99.90;;;;;;6911369;28;20937;-78
2022/06/25 04:57:51;;;;;;;4.10;1.60;;;17.30;99.90;;;;;;6910054;28;20896;-79
2022/06/25 05:01:13;;;;;;;5.90;1.85;;;17.40;99.90;;;;;;6898988;28;20429;-80
2022/06/25 05:04:37;;;;;;;4.40;1.70;;;17.40;99.90;;;;;;6903814;28;20436;-77
2022/06/25 05:07:59;;;;;;;5.30;1.80;;;17.50;99.90;;;;;;6913911;28;20447;-77
2022/06/25 05:11:21;;;;;;;5.47;1.90;;;17.60;99.90;;;;;;6916150;28;20445;-78
2022/06/25 05:14:43;;;;;;;5.18;1.52;;;17.70;99.90;;;;;;6902164;28;20478;-80
2022/06/25 05:18:05;;;;;;;3.85;1.45;;;17.90;99.90;;;;;;6893659;28;20442;-80
2022/06/25 05:21:29;;;;;;;3.78;1.50;;;17.80;99.90;;;;;;6915142;28;20476;-77
2022/06/25 05:24:51;;;;;;;3.97;1.35;;;17.80;99.90;;;;;;6916699;28;20440;-80
2022/06/25 05:28:15;;;;;;;4.25;1.38;;;17.70;99.90;;;;;;6916612;28;20429;-80
2022/06/25 05:31:37;;;;;;;3.47;1.43;;;17.80;99.90;;;;;;6915089;28;20468;-79
2022/06/25 05:34:59;;;;;;;3.47;1.40;;;17.90;99.90;;;;;;6916672;28;20732;-78
2022/06/25 05:38:23;;;;;;;3.20;1.30;;;17.90;99.90;;;;;;6915460;28;20413;-80
2022/06/25 05:41:45;;;;;;;3.67;1.40;;;17.90;99.90;;;;;;6914965;28;20469;-78
2022/06/25 05:45:09;;;;;;;2.90;1.20;;;17.90;99.90;;;;;;6915211;28;20468;-77
2022/06/25 05:48:32;;;;;;;3.67;1.37;;;17.80;99.90;;;;;;6916101;28;20501;-79
2022/06/25 05:51:54;;;;;;;2.58;1.40;;;17.80;99.90;;;;;;6914129;28;20445;-79
2022/06/25 05:55:17;;;;;;;4.70;1.30;;;17.90;99.90;;;;;;6915386;28;20436;-78
2022/06/25 05:58:39;;;;;;;4.35;1.50;;;18.10;99.90;;;;;;6913600;28;20440;-77
2022/06/25 06:02:01;;;;;;;4.13;1.53;;;18.20;99.90;;;;;;6914486;28;20522;-77
2022/06/25 06:05:23;;;;;;;4.40;1.58;;;18.20;99.90;;;;;;6914635;28;20440;-81
2022/06/25 06:08:45;;;;;;;4.90;1.30;;;18.30;99.90;;;;;;6905242;28;20999;-78
2022/06/25 06:12:09;;;;;;;3.70;1.50;;;18.40;99.90;;;;;;6909197;28;20479;-78
2022/06/25 06:15:31;;;;;;;4.25;1.20;;;18.50;99.90;;;;;;6897703;28;20435;-77
2022/06/25 06:18:53;;;;;;;4.50;1.25;;;18.60;99.90;;;;;;6906260;28;20437;-79
2022/06/25 06:22:15;;;;;;;4.03;1.30;;;18.70;99.90;;;;;;6914835;28;20432;-78
2022/06/25 06:25:37;;;;;;;4.25;1.20;;;18.80;99.90;;;;;;6913789;28;20485;-78
2022/06/25 06:29:01;;;;;;;3.00;1.20;;;18.90;99.90;;;;;;6914986;28;20490;-77
2022/06/25 06:32:23;;;;;;;3.53;1.27;;;18.90;99.90;;;;;;6903737;28;20919;-77
2022/06/25 06:35:46;;;;;;;4.72;1.40;;;19.00;99.90;;;;;;6909037;28;20449;-77
2022/06/25 06:39:08;;;;;;;4.00;1.30;;;19.10;99.90;;;;;;6899578;28;20476;-77
2022/06/25 06:42:30;;;;;;;5.87;1.20;;;19.10;99.90;;;;;;6913943;28;20423;-77
2022/06/25 06:45:53;;;;;;;3.88;1.17;;;19.20;99.90;;;;;;6913687;28;20503;-79
2022/06/25 06:49:15;;;;;;;3.83;1.30;;;19.30;99.90;;;;;;6911669;28;20432;-80
2022/06/25 06:52:38;;;;;;;5.00;1.40;;;19.40;99.90;;;;;;6912373;28;20444;-79
2022/06/25 06:56:00;;;;;;;5.85;1.40;;;19.50;99.90;;;;;;6912942;28;20444;-80
2022/06/25 06:59:22;;;;;;;4.32;1.70;;;19.50;99.90;;;;;;6913982;28;20588;-79
2022/06/25 07:02:46;;;;;;;3.50;1.10;;;19.60;99.90;;;;;;6914635;28;20783;-78
2022/06/25 07:06:08;;;;;;;2.95;1.17;;;19.60;99.90;;;;;;6913462;28;20444;-79
2022/06/25 07:09:30;;;;;;;4.87;1.20;;;19.70;99.90;;;;;;6912362;28;20443;-77
2022/06/25 07:12:52;;;;;;;2.67;1.20;;;19.70;99.90;;;;;;6913534;28;20484;-80
2022/06/25 07:16:14;;;;;;;2.72;1.00;;;19.90;99.90;;;;;;6913741;28;20429;-78
2022/06/25 07:19:37;;;;;;;2.97;1.00;;;20.00;99.90;;;;;;6912078;28;20935;-80
2022/06/25 07:23:00;;;;;;;4.05;1.30;;;20.00;99.90;;;;;;6913274;28;20490;-79
2022/06/25 07:26:23;;;;;;;3.65;1.05;;;20.00;99.90;;;;;;6913076;28;20914;-79
2022/06/25 07:29:45;;;;;;;3.47;1.00;;;20.00;99.90;;;;;;6912492;28;20479;-78
2022/06/25 07:33:07;;;;;;;2.83;0.90;;;20.00;99.90;;;;;;6913694;28;20503;-77
2022/06/25 07:36:30;;;;;;;2.58;0.90;;;20.10;99.90;;;;;;6889429;28;20517;-79
2022/06/25 07:39:52;;;;;;;3.20;0.90;;;20.20;99.90;;;;;;6909823;28;20475;-79
2022/06/25 07:43:15;;;;;;;3.90;1.00;;;20.20;99.90;;;;;;6913725;28;20429;-80
2022/06/25 07:46:37;;;;;;;2.78;1.20;;;20.20;99.90;;;;;;6912959;28;20437;-79
2022/06/25 07:53:41;;;;;;;3.03;1.20;;;20.30;99.90;;;;;;6913087;28;20913;-79
2022/06/25 07:57:04;;;;;;;2.50;1.10;;;20.40;99.90;;;;;;6913194;28;20437;-80
2022/06/25 08:00:26;;;;;;;3.40;1.20;;;20.40;99.80;;;;;;6913251;28;20492;-77
2022/06/25 08:03:48;;;;;;;4.03;1.23;;;20.50;99.80;;;;;;6912326;28;20474;-78
2022/06/25 08:07:10;;;;;;;2.80;1.15;;;20.60;99.90;;;;;;6929537;28;20435;-78
2022/06/25 08:10:34;;;;;;;3.60;1.15;;;20.70;99.20;;;;;;6927061;28;20436;-79
2022/06/25 08:13:56;;;;;;;4.43;1.27;;;20.80;99.00;;;;;;6909580;28;20444;-77
2022/06/25 08:17:18;;;;;;;6.03;1.30;;;20.80;98.70;;;;;;6912120;28;20475;-77
2022/06/25 08:20:40;;;;;;;5.63;1.60;;;20.90;99.20;;;;;;6905027;28;20915;-79
2022/06/25 08:24:02;;;;;;;3.33;1.37;;;21.00;98.70;;;;;;6908114;28;20448;-78
2022/06/25 08:27:25;;;;;;;5.50;1.75;;;21.10;98.40;;;;;;6906857;28;20543;-80
2022/06/25 08:30:48;;;;;;;3.17;1.52;;;21.20;99.10;;;;;;6910788;28;20493;-79
2022/06/25 08:34:10;;;;;;;4.45;1.80;;;21.30;98.60;;;;;;6925347;28;20506;-77
2022/06/25 08:37:32;;;;;;;4.40;1.80;;;21.30;98.40;;;;;;6929706;28;20455;-80
2022/06/25 08:40:57;;;;;;;5.03;2.00;;;21.40;97.10;;;;;;6921709;28;20766;-81
2022/06/25 08:44:20;;;;;;;5.27;1.60;;;21.40;98.00;;;;;;6934772;28;20466;-77
2022/06/25 08:47:45;;;;;;;4.10;1.60;;;21.50;98.10;;;;;;6917793;28;20853;-78
2022/06/25 08:51:08;;;;;;;5.35;2.00;;;21.50;97.70;;;;;;6912699;28;20445;-81
2022/06/25 08:54:31;;;;;;;3.83;1.60;;;21.60;97.30;;;;;;6913574;28;20455;-78
2022/06/25 08:57:53;;;;;;;5.32;1.95;;;21.60;97.10;;;;;;6911009;28;21244;-80
2022/06/25 09:01:17;;;;;;;5.28;1.70;;;21.70;97.40;;;;;;6912754;28;20439;-79
2022/06/25 09:04:39;;;;;;;3.92;1.63;;;21.70;97.20;;;;;;6911645;28;20474;-77
2022/06/25 09:08:05;;;;;;;3.53;1.52;;;21.80;97.10;;;;;;6910567;28;20910;-79
2022/06/25 09:11:27;;;;;;;5.55;2.05;;;21.90;96.80;;;;;;6910673;28;20452;-79
2022/06/25 09:14:49;;;;;;;5.80;1.70;;;22.00;96.50;;;;;;6912831;28;20927;-80
2022/06/25 09:18:15;;;;;;;4.00;1.70;;;22.00;96.60;;;;;;6912092;28;20432;-78
2022/06/25 09:21:42;;;;;;;4.05;1.90;;;22.00;96.80;;;;;;6910677;28;20471;-77
2022/06/25 09:25:05;;;;;;;3.60;1.60;;;22.10;97.20;;;;;;6912153;28;20433;-78
2022/06/25 09:28:31;;;;;;;5.50;1.80;;;22.10;96.10;;;;;;6910467;28;20871;-78
2022/06/25 09:31:53;;;;;;;5.25;1.70;;;22.20;96.90;;;;;;6911645;28;21203;-79
2022/06/25 09:35:31;;;;;;;5.85;1.70;;;22.00;96.90;;;;;;6912694;28;20467;-77
2022/06/25 09:38:53;;;;;;;4.40;1.80;;;22.00;96.60;;;;;;6907346;28;20464;-78
2022/06/25 09:42:26;;;;;;;4.80;1.58;;;22.10;96.40;;;;;;6908134;28;20517;-78
2022/06/25 09:45:50;;;;;;;4.95;1.83;;;22.20;96.20;;;;;;6909463;28;20436;-77
2022/06/25 09:49:23;;;;;;;4.47;1.90;;;22.30;96.30;;;;;;6910755;28;20440;-79
2022/06/25 09:52:56;;;;;;;5.10;1.80;;;22.40;96.20;;;;;;6910362;28;20787;-79
2022/06/25 09:56:21;;;;;;;4.75;1.60;;;22.40;96.40;;;;;;6908823;28;20464;-77
2022/06/25 09:59:44;;;;;;;4.20;1.90;;;22.40;96.10;;;;;;6922715;28;20539;-78
2022/06/25 10:03:06;;;;;;;5.60;1.98;;;22.40;96.40;;;;;;6912576;28;20519;-79
2022/06/25 10:06:35;;;;;;;6.43;1.98;;;22.50;97.50;;;;;;6908533;28;20437;-78
2022/06/25 10:09:59;;;;;;;5.47;1.77;;;22.60;96.40;;;;;;6919247;28;20551;-79
2022/06/25 10:13:22;;;;;;;8.65;4.55;;;22.80;96.30;;;;;;6922695;28;20446;-80
2022/06/25 10:16:45;;;;;;;6.63;3.40;;;22.90;95.40;;;;;;6913935;28;20835;-77
2022/06/25 10:20:08;;;;;;;4.88;1.90;;;22.60;95.70;;;;;;6911018;28;20912;-77
2022/06/25 10:23:30;;;;;;;3.65;1.90;;;22.80;95.50;;;;;;6910214;28;20945;-80
2022/06/25 10:26:54;;;;;;;5.03;1.80;;;23.00;95.50;;;;;;6915349;28;20467;-78
2022/06/25 10:30:36;;;;;;;4.27;1.80;;;23.00;93.80;;;;;;6911317;28;20863;-79
2022/06/25 10:34:02;;;;;;;3.38;1.48;;;23.00;94.20;;;;;;6910020;28;20799;-79
2022/06/25 10:37:25;;;;;;;3.80;1.63;;;23.10;94.70;;;;;;6908752;28;20440;-81
2022/06/25 10:40:55;;;;;;;4.77;1.67;;;23.10;93.60;;;;;;6938430;28;20481;-79
2022/06/25 10:44:20;;;;;;;4.20;1.60;;;23.10;93.50;;;;;;6937793;28;20439;-79
2022/06/25 10:47:47;;;;;;;3.90;1.58;;;23.10;93.50;;;;;;6934584;28;20599;-78
2022/06/25 10:51:29;;;;;;;3.77;1.53;;;23.10;94.30;;;;;;6908607;28;20557;-79
2022/06/25 10:54:52;;;;;;;3.60;1.50;;;23.20;93.70;;;;;;6889076;28;20441;-77
2022/06/25 10:58:17;;;;;;;4.18;1.35;;;23.40;94.70;;;;;;6909672;28;20437;-79
2022/06/25 11:01:40;;;;;;;4.68;1.48;;;23.40;93.40;;;;;;6907911;28;20515;-79
2022/06/25 11:05:02;;;;;;;6.90;2.00;;;23.50;93.10;;;;;;6910686;28;20476;-79
2022/06/25 11:08:33;;;;;;;4.82;1.70;;;23.40;93.20;;;;;;6911133;28;20843;-77
2022/06/25 11:11:56;;;;;;;4.78;2.03;;;23.50;92.80;;;;;;6910914;28;20484;-75
2022/06/25 11:15:18;;;;;;;3.22;1.33;;;23.50;91.70;;;;;;6910783;28;20428;-80
2022/06/25 11:18:49;;;;;;;3.83;1.50;;;23.50;92.00;;;;;;6911081;28;20505;-79
2022/06/25 11:22:11;;;;;;;5.82;1.40;;;23.60;92.60;;;;;;6908699;28;20530;-78
2022/06/25 11:29:30;;;;;;;5.30;1.90;;;23.70;91.80;;;;;;6907861;28;20532;-79
2022/06/25 11:32:53;;;;;;;5.65;1.85;;;23.90;92.00;;;;;;6908652;28;20858;-77
2022/06/25 11:36:17;;;;;;;4.15;1.52;;;23.90;92.00;;;;;;6909126;28;20464;-77
2022/06/25 11:39:41;;;;;;;3.92;1.63;;;24.00;90.80;;;;;;6907726;28;20464;-80
2022/06/25 11:43:07;;;;;;;4.22;1.58;;;24.10;91.20;;;;;;6908602;28;20460;-76
2022/06/25 11:46:30;;;;;;;5.80;2.07;;;24.20;90.80;;;;;;6908871;28;20479;-75
2022/06/25 11:49:53;;;;;;;6.22;2.25;;;24.20;91.70;;;;;;6908286;28;20519;-78
2022/06/25 11:53:17;;;;;;;3.53;1.52;;;24.20;90.20;;;;;;6907668;28;20587;-78
2022/06/25 11:56:47;;;;;;;3.17;1.52;;;24.30;90.50;;;;;;6908474;28;20518;-79
2022/06/25 12:00:14;;;;;;;6.07;3.00;;;24.30;90.50;;;;;;6906485;28;20569;-79
2022/06/25 12:03:36;;;;;;;4.68;2.10;;;24.40;90.50;;;;;;6908477;28;20495;-78
2022/06/25 12:06:59;;;;;;;3.50;1.55;;;24.50;90.40;;;;;;6905421;28;20525;-79
2022/06/25 12:10:23;;;;;;;3.10;1.40;;;24.60;90.40;;;;;;6911823;28;20501;-77
2022/06/25 12:13:45;;;;;;;3.67;1.50;;;24.60;90.00;;;;;;6914036;28;20929;-76
2022/06/25 12:17:09;;;;;;;4.25;1.40;;;24.60;89.90;;;;;;6910837;28;20440;-77
2022/06/25 12:20:32;;;;;;;4.30;1.50;;;24.80;87.00;;;;;;6912993;28;20436;-79
2022/06/25 12:23:57;;;;;;;2.80;1.40;;;24.80;86.40;;;;;;6910350;28;20480;-79
2022/06/25 12:27:20;;;;;;;3.42;1.40;;;24.80;87.30;;;;;;6912636;28;20472;-78
2022/06/25 12:30:43;;;;;;;7.72;3.15;;;25.00;88.60;;;;;;6913341;28;20523;-80
2022/06/25 12:34:06;;;;;;;18.48;9.95;;;25.20;86.50;;;;;;6912154;28;20946;-80
2022/06/25 12:37:31;;;;;;;5.57;2.00;;;25.30;88.40;;;;;;6916729;28;20485;-78
2022/06/25 12:40:53;;;;;;;4.40;1.40;;;25.60;84.80;;;;;;6917727;28;20441;-78
2022/06/25 12:44:17;;;;;;;3.93;1.40;;;25.90;82.10;;;;;;6917245;28;20479;-78
2022/06/25 12:47:42;;;;;;;3.28;1.33;;;26.00;83.20;;;;;;6917487;28;20436;-76
2022/06/25 12:51:10;;;;;;;3.27;1.30;;;26.10;79.70;;;;;;6915739;28;20467;-79
2022/06/25 12:54:44;;;;;;;3.30;1.20;;;26.00;82.40;;;;;;6917223;28;20938;-78
2022/06/25 12:58:08;;;;;;;3.90;1.75;;;26.30;83.30;;;;;;6917453;28;20911;-79
2022/06/25 13:01:33;;;;;;;3.10;1.25;;;26.40;85.00;;;;;;6917088;28;20439;-79
2022/06/25 13:04:55;;;;;;;2.70;1.20;;;26.60;82.40;;;;;;6917101;28;20469;-79
2022/06/25 13:08:17;;;;;;;3.90;1.30;;;26.60;82.20;;;;;;6917292;28;20890;-78
2022/06/25 13:11:40;;;;;;;3.03;1.20;;;26.80;78.50;;;;;;6916773;28;20481;-78
2022/06/25 13:15:02;;;;;;;3.60;1.20;;;26.80;79.30;;;;;;6916905;28;20457;-80
2022/06/25 13:18:25;;;;;;;4.00;1.20;;;26.90;79.70;;;;;;6915564;28;20473;-78
2022/06/25 13:21:47;;;;;;;3.30;1.20;;;27.30;78.70;;;;;;6916479;28;20504;-77
2022/06/25 13:25:10;;;;;;;3.10;1.20;;;27.60;77.70;;;;;;6916668;28;20948;-77
2022/06/25 13:28:32;;;;;;;2.83;1.20;;;27.50;77.00;;;;;;6916446;28;20911;-77
2022/06/25 13:31:55;;;;;;;3.03;1.20;;;27.40;75.20;;;;;;6916390;28;20440;-77
2022/06/25 13:35:18;;;;;;;3.13;1.20;;;27.70;73.40;;;;;;6916148;28;20428;-76
2022/06/25 13:38:41;;;;;;;2.60;1.10;;;27.70;74.80;;;;;;6916311;28;20443;-76
2022/06/25 13:42:03;;;;;;;3.72;1.30;;;28.00;74.00;;;;;;6916160;28;20424;-80
2022/06/25 13:45:25;;;;;;;2.95;1.20;;;28.00;72.00;;;;;;6915982;28;20444;-79
2022/06/25 13:48:48;;;;;;;2.70;1.20;;;28.30;69.90;;;;;;6915980;28;20916;-78
2022/06/25 13:52:11;;;;;;;3.45;1.30;;;28.60;70.80;;;;;;6915685;28;20440;-79
2022/06/25 13:55:34;;;;;;;3.85;1.10;;;28.90;74.00;;;;;;6915792;28;20471;-79
2022/06/25 13:58:56;;;;;;;3.22;1.30;;;29.20;69.30;;;;;;6915716;28;20583;-78
2022/06/25 14:02:18;;;;;;;2.38;1.10;;;29.00;69.60;;;;;;6915833;28;20488;-77
2022/06/25 14:05:40;;;;;;;3.15;1.20;;;29.10;69.30;;;;;;6915441;28;20481;-78
2022/06/25 14:09:03;;;;;;;3.72;1.73;;;28.90;69.00;;;;;;6915249;28;20432;-77
2022/06/25 14:12:26;;;;;;;2.50;1.30;;;28.90;67.50;;;;;;6915374;28;20931;-77
2022/06/25 14:15:48;;;;;;;3.70;1.70;;;28.80;67.80;;;;;;6916577;28;20433;-77
2022/06/25 14:19:10;;;;;;;3.35;1.38;;;28.80;69.10;;;;;;6926155;28;20420;-76
2022/06/25 14:22:32;;;;;;;6.57;3.40;;;28.70;67.60;;;;;;6917417;28;20898;-77
2022/06/25 14:25:56;;;;;;;5.65;2.92;;;28.60;68.80;;;;;;6917425;28;20425;-79
2022/06/25 14:29:18;;;;;;;4.00;1.30;;;28.80;67.30;;;;;;6915330;28;20475;-76
2022/06/25 14:32:40;;;;;;;3.83;1.45;;;28.80;66.00;;;;;;6914918;28;20432;-79
2022/06/25 14:43:25;;;;;;;3.00;1.50;;;29.50;68.80;;;;;;6914579;28;20420;-79
2022/06/25 14:46:47;;;;;;;3.38;1.40;;;29.80;68.00;;;;;;6914161;28;20799;-78
2022/06/25 14:50:10;;;;;;;3.75;1.50;;;29.80;66.80;;;;;;6914564;28;20767;-78
2022/06/25 14:53:32;;;;;;;2.93;1.30;;;30.00;67.40;;;;;;6913201;28;20451;-78
2022/06/25 14:56:54;;;;;;;3.28;1.17;;;30.40;65.40;;;;;;6914086;28;20435;-79
2022/06/25 15:00:18;;;;;;;3.08;1.17;;;30.20;63.80;;;;;;6914102;28;20429;-78
2022/06/25 15:03:40;;;;;;;3.07;1.20;;;30.10;62.30;;;;;;6914075;28;20432;-79
2022/06/25 15:07:02;;;;;;;3.28;1.10;;;30.20;62.90;;;;;;6914063;28;20485;-80
2022/06/25 15:10:25;;;;;;;3.33;1.40;;;30.60;60.60;;;;;;6913867;28;20878;-79
2022/06/25 15:13:47;;;;;;;3.53;1.30;;;30.30;62.40;;;;;;6913700;28;20538;-79
2022/06/25 15:17:10;;;;;;;2.47;1.20;;;30.80;60.00;;;;;;6913649;28;20906;-78
2022/06/25 15:20:33;;;;;;;2.65;1.20;;;31.30;60.30;;;;;;6913554;28;20899;-79
2022/06/25 15:23:55;;;;;;;2.50;1.17;;;31.40;60.40;;;;;;6913814;28;21074;-79
2022/06/25 15:27:17;;;;;;;2.53;1.10;;;31.80;60.00;;;;;;6913482;28;20437;-77
2022/06/25 15:30:39;;;;;;;3.03;1.33;;;31.80;57.80;;;;;;6913529;28;20456;-78
2022/06/25 15:34:03;;;;;;;2.65;1.10;;;32.00;59.10;;;;;;6913475;28;20501;-79
2022/06/25 15:37:25;;;;;;;2.67;1.23;;;31.60;58.50;;;;;;6913086;28;20437;-79
2022/06/25 15:40:47;;;;;;;6.45;3.50;;;31.70;59.50;;;;;;6912777;28;20432;-78
2022/06/25 15:44:09;;;;;;;5.95;3.50;;;32.10;56.20;;;;;;6912988;28;20464;-78
2022/06/25 15:47:31;;;;;;;6.53;3.60;;;32.20;56.30;;;;;;6913162;28;20431;-78
2022/06/25 15:50:54;;;;;;;3.25;1.30;;;32.30;56.40;;;;;;6913311;28;20439;-78
2022/06/25 15:54:16;;;;;;;2.75;1.20;;;32.40;56.30;;;;;;6912938;28;20486;-78
2022/06/25 15:57:38;;;;;;;3.03;1.27;;;32.90;54.30;;;;;;6913124;28;20480;-78
2022/06/25 16:01:00;;;;;;;3.72;1.30;;;33.60;54.10;;;;;;6903045;28;20549;-79
2022/06/25 16:04:23;;;;;;;2.70;1.10;;;34.00;53.30;;;;;;6909346;28;20794;-79
2022/06/25 16:07:47;;;;;;;2.25;1.10;;;34.30;52.70;;;;;;6913139;28;20953;-80
2022/06/25 16:14:45;;;;;;;3.17;1.10;;;34.40;51.50;;;;;;6907934;28;20782;-77
2022/06/25 16:18:07;;;;;;;3.75;1.10;;;34.40;52.20;;;;;;6906370;28;20460;-78
2022/06/25 16:21:29;;;;;;;2.47;1.00;;;34.50;51.50;;;;;;6909206;28;20902;-78
2022/06/25 16:24:53;;;;;;;1.98;1.00;;;34.20;51.90;;;;;;6908171;28;20432;-78
2022/06/25 16:28:15;;;;;;;2.08;1.00;;;34.10;51.70;;;;;;6906549;28;20484;-77
2022/06/25 16:31:38;;;;;;;3.43;1.10;;;34.30;50.60;;;;;;6906602;28;20441;-79
2022/06/25 16:35:00;;;;;;;2.33;0.93;;;34.30;50.40;;;;;;6907809;28;20448;-79
2022/06/25 16:38:22;;;;;;;3.27;1.07;;;34.40;50.00;;;;;;6923443;28;20509;-78
2022/06/25 16:41:47;;;;;;;3.50;1.10;;;33.60;51.30;;;;;;6918428;28;20477;-78
2022/06/25 16:45:10;;;;;;;2.03;0.80;;;33.70;51.30;;;;;;6915775;28;20440;-80
2022/06/25 16:48:32;;;;;;;2.15;0.85;;;33.90;50.90;;;;;;6907880;28;20488;-78
2022/06/25 16:51:56;;;;;;;2.65;1.05;;;34.20;51.40;;;;;;6905946;28;20929;-77
2022/06/25 16:55:18;;;;;;;3.05;0.90;;;34.20;49.50;;;;;;6911700;28;20479;-78
2022/06/25 16:58:42;;;;;;;3.47;0.90;;;34.40;48.60;;;;;;6912605;28;20447;-78
2022/06/25 17:02:04;;;;;;;2.72;1.05;;;34.50;48.00;;;;;;6912662;28;20488;-77
2022/06/25 17:05:26;;;;;;;3.33;0.95;;;34.20;49.40;;;;;;6912413;28;20523;-77
2022/06/25 17:08:48;;;;;;;1.77;0.80;;;34.30;49.40;;;;;;6911595;28;20475;-79
2022/06/25 17:12:11;;;;;;;3.63;1.73;;;34.20;49.20;;;;;;6913767;28;20476;-77
2022/06/25 17:15:34;;;;;;;2.38;1.00;;;33.70;49.10;;;;;;6914450;28;20475;-78
2022/06/25 17:18:57;;;;;;;2.60;1.20;;;34.00;50.70;;;;;;6915303;28;20440;-77
2022/06/25 17:22:19;;;;;;;2.83;1.00;;;34.30;50.50;;;;;;6914941;28;20493;-76
2022/06/25 17:25:42;;;;;;;3.17;1.10;;;34.50;50.40;;;;;;6914045;28;21219;-77
2022/06/25 17:29:05;;;;;;;4.00;1.70;;;34.60;48.70;;;;;;6914320;28;20490;-78
2022/06/25 17:32:31;;;;;;;2.42;0.80;;;34.60;48.30;;;;;;6911681;28;20436;-76
2022/06/25 17:35:53;;;;;;;1.90;0.70;;;34.70;48.20;;;;;;6912330;28;20482;-78
2022/06/25 17:39:15;;;;;;;3.00;1.33;;;34.50;47.00;;;;;;6912136;28;20545;-77
2022/06/25 17:42:37;;;;;;;1.98;0.70;;;33.90;46.60;;;;;;6909914;28;20483;-79
2022/06/25 17:45:59;;;;;;;2.08;0.70;;;33.80;47.50;;;;;;6910768;28;20465;-80
2022/06/25 17:49:22;;;;;;;1.80;0.80;;;33.50;46.90;;;;;;6911663;28;20472;-78
2022/06/25 17:52:45;;;;;;;2.42;0.70;;;33.30;47.30;;;;;;6911144;28;20484;-79
2022/06/25 17:56:07;;;;;;;2.30;0.80;;;33.20;47.30;;;;;;6909610;28;20554;-77
2022/06/25 17:59:29;;;;;;;2.00;0.80;;;33.10;47.80;;;;;;6908924;28;20437;-80
2022/06/25 18:02:51;;;;;;;2.37;0.90;;;33.10;48.20;;;;;;6909270;28;20467;-76